Time;durP1;ratioP1;P1;durP2;ratioP2;P2;SDS_P1;SDS_P2;PMS_P1;PMS_P2;Temp;Humidity;BMP_temperature;BMP_pressure;BME280_temperature;BME280_humidity;BME280_pressure;Samples;Min_cycle;Max_cycle;Signal;HPM_P1;HPM_P2
2021/03/11 00:01:25;;;;;;;2.93;2.83;;;;;;;-3.12;74.79;101716.09;6167232;28;20421;-73
2021/03/11 00:04:45;;;;;;;2.63;2.53;;;;;;;-2.78;73.33;101710.09;6166742;29;20362;-74
2021/03/11 00:07:49;;;;;;;2.50;2.37;;;;;;;-2.94;74.29;101709.47;6166719;29;20481;-73
2021/03/11 00:10:53;;;;;;;2.40;2.40;;;;;;;-2.79;73.67;101705.69;6166694;29;20434;-74
2021/03/11 00:13:56;;;;;;;3.17;2.37;;;;;;;-2.90;73.68;101681.56;6167437;29;20195;-73
2021/03/11 00:17:00;;;;;;;2.50;2.50;;;;;;;-3.02;74.80;101677.13;6167731;29;20236;-73
2021/03/11 00:20:07;;;;;;;2.53;2.40;;;;;;;-3.26;75.47;101662.81;6166716;29;20194;-74
2021/03/11 00:23:18;;;;;;;2.53;2.43;;;;;;;-3.20;75.78;101657.06;6151042;29;20200;-73
2021/03/11 00:26:23;;;;;;;2.97;2.77;;;;;;;-3.42;76.80;101640.88;6167226;28;20215;-74
2021/03/11 00:29:28;;;;;;;2.90;2.70;;;;;;;-3.03;75.27;101642.53;6165964;29;20540;-74
2021/03/11 00:32:32;;;;;;;3.83;2.70;;;;;;;-2.97;75.08;101652.75;6165937;29;20191;-74
2021/03/11 00:35:35;;;;;;;2.73;2.57;;;;;;;-2.94;74.88;101658.72;6166055;29;20581;-74
2021/03/11 00:38:40;;;;;;;2.60;2.50;;;;;;;-3.14;74.85;101645.97;6166479;29;20202;-74
2021/03/11 00:41:45;;;;;;;2.57;2.47;;;;;;;-3.14;75.15;101637.97;6167182;29;20196;-73
2021/03/11 00:44:48;;;;;;;2.73;2.53;;;;;;;-2.91;73.89;101631.81;6149126;29;20444;-73
2021/03/11 00:47:52;;;;;;;2.63;2.53;;;;;;;-3.08;74.37;101629.50;6149422;29;20216;-73
2021/03/11 00:50:55;;;;;;;2.30;2.30;;;;;;;-3.10;74.78;101610.06;6148954;29;20204;-73
2021/03/11 00:54:00;;;;;;;2.43;2.37;;;;;;;-3.08;74.92;101613.47;6166573;29;20211;-73
2021/03/11 00:57:12;;;;;;;3.03;2.83;;;;;;;-3.18;75.35;101617.78;6166646;29;20226;-73
2021/03/11 01:00:20;;;;;;;2.73;2.63;;;;;;;-3.20;75.07;101617.03;6165455;29;20213;-73
2021/03/11 01:03:45;;;;;;;2.70;2.60;;;;;;;-3.09;74.42;101606.44;6127174;29;20263;-74
2021/03/11 01:06:48;;;;;;;2.70;2.50;;;;;;;-3.19;75.27;101605.41;6142416;29;20193;-74
2021/03/11 01:09:54;;;;;;;2.60;2.50;;;;;;;-3.27;76.01;101597.94;6141492;29;20242;-74
2021/03/11 01:12:58;;;;;;;2.53;2.53;;;;;;;-3.13;75.44;101594.28;6141361;29;20188;-74
2021/03/11 01:16:02;;;;;;;3.20;2.90;;;;;;;-3.27;75.41;101575.75;6142044;29;20216;-74
2021/03/11 01:19:06;;;;;;;2.97;2.87;;;;;;;-3.17;75.67;101571.44;6141191;29;20190;-74
2021/03/11 01:22:10;;;;;;;2.67;2.47;;;;;;;-3.30;75.63;101554.63;6141037;29;20383;-73
2021/03/11 01:25:14;;;;;;;4.70;2.50;;;;;;;-3.34;76.44;101558.47;6140939;29;20194;-74
2021/03/11 01:28:19;;;;;;;2.67;2.47;;;;;;;-3.23;75.83;101550.53;6141891;29;20205;-74
2021/03/11 01:31:23;;;;;;;2.57;2.47;;;;;;;-3.34;75.85;101547.81;6142269;29;20213;-73
2021/03/11 01:34:26;;;;;;;2.87;2.70;;;;;;;-3.27;76.38;101543.72;6141104;29;20196;-74
2021/03/11 01:37:30;;;;;;;2.47;2.37;;;;;;;-3.24;76.21;101538.16;6140137;29;20256;-74
2021/03/11 01:40:34;;;;;;;2.27;2.17;;;;;;;-3.06;76.04;101515.47;6140679;29;20375;-74
2021/03/11 01:43:38;;;;;;;3.00;2.30;;;;;;;-3.25;75.93;101509.75;6140992;29;20197;-74
2021/03/11 01:46:41;;;;;;;2.30;2.30;;;;;;;-3.16;76.41;101498.44;6141506;29;20240;-74
2021/03/11 01:49:44;;;;;;;2.60;2.53;;;;;;;-2.90;75.20;101489.31;6141826;29;20229;-73
2021/03/11 01:52:49;;;;;;;2.30;2.30;;;;;;;-3.13;75.94;101490.16;6141533;29;20190;-73
2021/03/11 01:55:52;;;;;;;2.50;2.30;;;;;;;-3.03;76.02;101493.84;6140859;29;20261;-73
2021/03/11 01:58:56;;;;;;;2.43;2.43;;;;;;;-3.11;76.20;101482.91;6140431;29;20417;-73
2021/03/11 02:02:00;;;;;;;2.30;2.20;;;;;;;-3.22;77.11;101477.53;6149791;29;20241;-73
2021/03/11 02:05:05;;;;;;;2.63;2.50;;;;;;;-3.08;76.92;101473.84;6158509;23;20263;-73
2021/03/11 02:08:15;;;;;;;2.47;2.37;;;;;;;-3.18;77.15;101477.16;6140844;29;20214;-73
2021/03/11 02:11:26;;;;;;;2.40;2.30;;;;;;;-3.03;77.02;101451.13;6140525;29;20388;-73
2021/03/11 02:14:39;;;;;;;2.97;2.73;;;;;;;-2.90;77.65;101446.59;6141739;29;20222;-73
2021/03/11 02:17:48;;;;;;;2.30;2.30;;;;;;;-2.93;77.67;101441.50;6141680;29;20217;-73
2021/03/11 02:21:01;;;;;;;2.53;2.43;;;;;;;-2.73;77.36;101431.97;6140440;29;20192;-74
2021/03/11 02:24:25;;;;;;;2.50;2.40;;;;;;;-2.63;77.29;101433.81;6141488;29;20257;-74
2021/03/11 02:27:52;;;;;;;2.40;2.30;;;;;;;-2.63;76.71;101423.13;6141524;29;20251;-74
2021/03/11 02:30:57;;;;;;;2.97;2.50;;;;;;;-2.59;76.04;101421.91;6123488;29;20386;-74
2021/03/11 02:34:08;;;;;;;2.70;2.70;;;;;;;-2.57;76.95;101401.25;6140404;29;20498;-73
2021/03/11 02:37:19;;;;;;;3.10;2.17;;;;;;;-2.55;77.02;101410.03;6124585;29;20227;-74
2021/03/11 02:40:26;;;;;;;2.50;2.30;;;;;;;-2.64;77.44;101405.38;6141196;29;20194;-73
2021/03/11 02:43:29;;;;;;;2.30;2.30;;;;;;;-2.50;77.47;101390.09;6141459;29;20198;-74
2021/03/11 02:46:38;;;;;;;2.67;2.13;;;;;;;-2.40;76.96;101367.03;6141165;29;20196;-74
2021/03/11 02:49:43;;;;;;;2.70;2.60;;;;;;;-2.36;76.22;101355.16;6144597;29;20197;-74
2021/03/11 02:52:48;;;;;;;2.73;2.63;;;;;;;-2.35;76.68;101347.00;6144628;29;20254;-74
2021/03/11 02:55:58;;;;;;;2.47;2.43;;;;;;;-2.45;77.30;101340.69;6145717;29;20222;-74
2021/03/11 02:59:04;;;;;;;2.50;2.40;;;;;;;-2.40;76.50;101334.97;6145726;29;20233;-74
2021/03/11 03:02:10;;;;;;;2.50;2.40;;;;;;;-2.23;77.01;101337.13;6144370;29;20260;-74
2021/03/11 03:05:19;;;;;;;3.37;2.37;;;;;;;-2.38;77.79;101322.31;6124196;29;20247;-74
2021/03/11 03:08:24;;;;;;;2.30;2.30;;;;;;;-2.36;77.87;101323.06;6120594;29;20342;-74
2021/03/11 03:11:29;;;;;;;2.40;2.30;;;;;;;-2.25;77.74;101317.69;6120525;29;20484;-74
2021/03/11 03:14:32;;;;;;;2.40;2.30;;;;;;;-2.31;78.18;101304.84;6121453;29;20231;-74
2021/03/11 03:17:38;;;;;;;2.40;2.30;;;;;;;-2.14;77.69;101307.00;6112625;29;20219;-74
2021/03/11 03:20:41;;;;;;;2.00;2.00;;;;;;;-2.10;78.14;101297.75;6121692;29;20192;-74
2021/03/11 03:23:46;;;;;;;2.80;2.70;;;;;;;-2.00;77.12;101296.00;6120383;29;20387;-74
2021/03/11 03:26:49;;;;;;;2.17;2.00;;;;;;;-2.04;78.46;101289.22;6120712;29;20242;-74
2021/03/11 03:29:52;;;;;;;2.67;2.20;;;;;;;-1.93;77.70;101273.16;6121345;29;20223;-74
2021/03/11 03:32:56;;;;;;;2.77;2.50;;;;;;;-1.99;78.17;101262.97;6121095;29;20224;-74
2021/03/11 03:36:00;;;;;;;3.43;2.50;;;;;;;-1.99;78.45;101254.94;6121147;29;20246;-72
2021/03/11 03:39:04;;;;;;;2.70;2.50;;;;;;;-1.98;78.54;101253.97;6119900;29;20551;-73
2021/03/11 03:42:12;;;;;;;2.20;2.20;;;;;;;-2.10;80.00;101244.28;6120214;29;20223;-73
2021/03/11 03:45:21;;;;;;;2.20;2.20;;;;;;;-1.99;79.31;101222.84;6120982;29;20230;-72
2021/03/11 03:48:32;;;;;;;2.63;2.30;;;;;;;-2.01;78.63;101216.78;6120909;29;20195;-73
2021/03/11 03:51:39;;;;;;;2.07;2.07;;;;;;;-2.00;79.79;101207.78;6120658;29;20277;-73
2021/03/11 03:54:44;;;;;;;2.30;2.20;;;;;;;-1.97;79.69;101203.03;6120466;29;20236;-73
2021/03/11 03:57:51;;;;;;;2.67;2.57;;;;;;;-1.94;80.89;101191.22;6120844;29;20215;-74
2021/03/11 04:00:56;;;;;;;2.30;2.30;;;;;;;-1.80;80.12;101188.25;6119772;29;20198;-73
2021/03/11 04:04:03;;;;;;;1.97;1.97;;;;;;;-1.94;81.47;101180.53;6110052;29;20546;-73
2021/03/11 04:07:10;;;;;;;3.80;2.40;;;;;;;-1.73;81.50;101172.53;6095917;29;20291;-73
2021/03/11 04:10:14;;;;;;;2.87;2.67;;;;;;;-1.66;82.22;101158.50;6096778;29;20193;-73
2021/03/11 04:13:18;;;;;;;2.50;2.40;;;;;;;-1.52;82.62;101150.16;6097079;29;20193;-73
2021/03/11 04:16:22;;;;;;;2.37;2.27;;;;;;;-1.18;81.01;101136.50;6097036;29;20223;-73
2021/03/11 04:19:26;;;;;;;2.57;2.47;;;;;;;-1.26;82.01;101134.50;6095405;29;20438;-73
2021/03/11 04:22:30;;;;;;;2.77;2.67;;;;;;;-1.19;81.50;101116.91;6096545;29;20193;-73
2021/03/11 04:25:34;;;;;;;2.90;2.20;;;;;;;-1.05;81.46;101118.38;6087652;29;20526;-74
2021/03/11 04:28:38;;;;;;;3.53;2.30;;;;;;;-0.99;80.99;101104.44;6095442;29;20513;-74
2021/03/11 04:31:41;;;;;;;1.90;1.90;;;;;;;-0.89;79.91;101083.88;6096622;29;20256;-74
2021/03/11 04:34:45;;;;;;;2.20;2.10;;;;;;;-0.69;78.96;101080.25;6096453;29;20231;-75
2021/03/11 04:37:50;;;;;;;2.63;2.53;;;;;;;-0.51;77.96;101069.72;6096436;29;20217;-73
2021/03/11 04:40:53;;;;;;;2.20;2.10;;;;;;;-0.58;78.29;101056.00;6096152;29;20256;-74
2021/03/11 04:44:00;;;;;;;1.90;1.90;;;;;;;-0.64;78.57;101049.38;6096256;29;20207;-73
2021/03/11 04:47:04;;;;;;;1.90;1.87;;;;;;;-0.54;78.66;101030.63;6095987;29;20196;-75
2021/03/11 04:50:11;;;;;;;2.30;2.10;;;;;;;-0.46;78.20;101017.34;6096148;29;20231;-74
2021/03/11 04:53:15;;;;;;;2.00;1.90;;;;;;;-0.53;78.21;101015.38;6095751;29;20199;-74
2021/03/11 04:56:21;;;;;;;2.53;2.33;;;;;;;-0.65;78.95;101012.88;6096026;29;20276;-74
2021/03/11 04:59:25;;;;;;;1.90;1.90;;;;;;;-0.46;77.94;100993.22;6094701;29;20260;-74
2021/03/11 05:02:32;;;;;;;2.10;2.00;;;;;;;-0.33;77.01;100966.97;6095693;29;20224;-73
2021/03/11 05:05:38;;;;;;;2.03;1.93;;;;;;;-0.22;76.40;100961.44;6103301;29;20267;-73
2021/03/11 05:08:41;;;;;;;3.27;1.93;;;;;;;-0.16;76.11;100950.16;6119046;29;20193;-74
2021/03/11 05:11:44;;;;;;;1.90;1.80;;;;;;;-0.30;76.70;100952.44;6117945;29;20253;-74
2021/03/11 05:14:48;;;;;;;1.80;1.80;;;;;;;-0.27;76.11;100947.63;6119112;29;20224;-74
2021/03/11 05:17:51;;;;;;;5.77;2.10;;;;;;;-0.30;76.40;100957.78;6119262;29;20218;-73
2021/03/11 05:20:56;;;;;;;2.00;1.60;;;;;;;-0.20;76.08;100954.09;6118687;29;20192;-74
2021/03/11 05:23:59;;;;;;;1.80;1.70;;;;;;;-0.19;75.45;100955.81;6117920;29;20260;-74
2021/03/11 05:27:02;;;;;;;1.70;1.60;;;;;;;-0.17;75.26;100953.81;6118871;29;20193;-74
2021/03/11 05:30:09;;;;;;;1.70;1.50;;;;;;;-0.14;74.83;100948.16;6117519;29;20189;-74
2021/03/11 05:33:18;;;;;;;2.70;1.97;;;;;;;-0.16;74.76;100944.78;6118429;29;20256;-74
2021/03/11 05:36:23;;;;;;;2.97;1.63;;;;;;;-0.18;74.29;100930.66;6118530;29;20213;-74
2021/03/11 05:39:26;;;;;;;1.63;1.63;;;;;;;-0.21;74.65;100925.63;6117337;29;20400;-73
2021/03/11 05:42:30;;;;;;;1.97;1.87;;;;;;;-0.15;74.28;100919.66;6117194;29;20366;-73
2021/03/11 05:45:33;;;;;;;5.03;2.03;;;;;;;0.03;73.14;100924.25;6118101;29;20199;-74
2021/03/11 05:48:39;;;;;;;1.80;1.80;;;;;;;-0.05;74.19;100915.09;6117204;29;20348;-73
2021/03/11 05:51:44;;;;;;;1.90;1.90;;;;;;;0.07;73.49;100918.44;6117823;29;20189;-74
2021/03/11 05:54:48;;;;;;;2.10;1.90;;;;;;;-0.07;74.33;100901.00;6117133;29;20577;-74
2021/03/11 05:58:00;;;;;;;1.50;1.50;;;;;;;0.09;73.84;100889.63;6117063;29;20447;-74
2021/03/11 06:01:05;;;;;;;2.30;1.90;;;;;;;0.18;73.10;100877.16;6118058;29;20246;-74
2021/03/11 06:04:25;;;;;;;2.60;1.97;;;;;;;0.22;73.30;100873.19;6109208;29;20243;-74
2021/03/11 06:07:31;;;;;;;1.50;1.40;;;;;;;0.21;73.63;100855.38;6117973;29;20231;-74
2021/03/11 06:10:35;;;;;;;1.80;1.80;;;;;;;0.27;73.87;100854.78;6118131;29;20186;-73
2021/03/11 06:13:41;;;;;;;1.90;1.80;;;;;;;0.23;74.43;100832.78;6118016;29;20253;-73
2021/03/11 06:16:50;;;;;;;1.80;1.80;;;;;;;0.29;74.04;100831.31;6117928;29;20222;-73
2021/03/11 06:19:54;;;;;;;1.63;1.63;;;;;;;0.28;74.90;100818.91;6118172;29;20238;-74
2021/03/11 06:22:59;;;;;;;2.03;1.87;;;;;;;0.25;75.46;100817.38;6117360;29;20190;-73
2021/03/11 06:26:02;;;;;;;2.00;1.90;;;;;;;0.32;75.20;100826.50;6121498;29;20221;-73
2021/03/11 06:29:07;;;;;;;1.80;1.70;;;;;;;0.55;74.51;100821.53;6122829;29;20254;-74
2021/03/11 06:32:11;;;;;;;4.60;2.30;;;;;;;0.57;74.62;100824.91;6122288;29;20197;-74
2021/03/11 06:35:19;;;;;;;2.00;1.90;;;;;;;0.40;75.92;100806.97;6122796;29;20228;-74
2021/03/11 06:38:27;;;;;;;1.97;1.90;;;;;;;0.54;75.29;100804.59;6122188;29;20242;-74
2021/03/11 06:41:43;;;;;;;1.93;1.83;;;;;;;0.50;76.21;100780.88;6122046;29;20197;-73
2021/03/11 06:44:46;;;;;;;2.13;2.13;;;;;;;0.54;76.32;100787.63;6122281;29;20193;-74
2021/03/11 06:47:51;;;;;;;2.27;2.27;;;;;;;0.54;76.61;100774.19;6121585;29;20200;-74
2021/03/11 06:50:56;;;;;;;2.20;2.10;;;;;;;0.71;76.38;100776.06;6122647;29;20190;-73
2021/03/11 06:54:01;;;;;;;2.17;1.97;;;;;;;0.62;76.83;100763.53;6122625;29;20221;-74
2021/03/11 06:57:07;;;;;;;4.13;2.33;;;;;;;0.80;76.98;100740.19;6121996;29;20223;-73
2021/03/11 07:00:17;;;;;;;2.47;2.27;;;;;;;0.82;77.13;100716.72;6121783;29;20230;-73
2021/03/11 07:03:39;;;;;;;2.37;2.27;;;;;;;0.85;77.13;100705.66;6113424;29;20235;-74
2021/03/11 07:06:44;;;;;;;3.73;2.53;;;;;;;0.97;76.90;100699.03;6120232;29;20361;-73
2021/03/11 07:09:52;;;;;;;4.00;2.47;;;;;;;1.01;77.01;100705.75;6121726;29;20231;-75
2021/03/11 07:12:58;;;;;;;2.90;2.67;;;;;;;0.83;78.07;100696.91;6120624;29;20493;-74
2021/03/11 07:16:02;;;;;;;3.13;2.43;;;;;;;0.93;77.55;100686.91;6121106;29;20231;-74
2021/03/11 07:19:13;;;;;;;4.17;2.47;;;;;;;1.09;77.31;100680.78;6121162;29;20219;-73
2021/03/11 07:22:16;;;;;;;2.93;2.73;;;;;;;1.07;77.37;100675.56;6120640;29;20255;-73
2021/03/11 07:25:29;;;;;;;3.33;3.13;;;;;;;0.97;78.30;100674.84;6120210;29;20502;-73
2021/03/11 07:28:33;;;;;;;4.93;3.20;;;;;;;1.01;78.58;100662.78;6121055;29;20194;-73
2021/03/11 07:31:36;;;;;;;5.07;3.50;;;;;;;1.23;77.76;100661.38;6121377;29;20191;-73
2021/03/11 07:34:40;;;;;;;4.10;3.63;;;;;;;1.34;77.93;100641.41;6119274;29;20259;-73
2021/03/11 07:37:48;;;;;;;4.13;3.47;;;;;;;1.26;78.50;100640.38;6121004;29;20229;-72
2021/03/11 07:40:54;;;;;;;4.93;3.63;;;;;;;1.36;78.32;100645.66;6120707;29;20202;-74
2021/03/11 07:43:58;;;;;;;5.93;4.23;;;;;;;1.51;78.12;100624.34;6121169;29;20192;-74
2021/03/11 07:47:01;;;;;;;5.37;4.60;;;;;;;1.44;78.73;100626.84;6103488;29;20215;-74
2021/03/11 07:50:09;;;;;;;5.70;5.17;;;;;;;1.57;78.79;100616.44;6119724;29;20192;-74
2021/03/11 07:53:14;;;;;;;13.13;5.73;;;;;;;1.59;78.93;100602.88;6120789;29;20241;-73
2021/03/11 07:56:19;;;;;;;8.60;5.83;;;;;;;1.62;79.03;100610.56;6119983;29;20259;-74
2021/03/11 07:59:45;;;;;;;12.30;6.37;;;;;;;1.53;79.69;100619.63;6120903;29;20223;-74
2021/03/11 08:02:54;;;;;;;7.30;6.63;;;;;;;1.60;79.39;100591.09;6118720;29;20190;-74
2021/03/11 08:06:22;;;;;;;14.20;7.47;;;;;;;1.55;79.62;100579.97;6114897;29;20241;-74
2021/03/11 08:09:35;;;;;;;12.10;7.63;;;;;;;1.79;78.49;100564.75;6120546;29;20218;-73
2021/03/11 08:12:41;;;;;;;12.67;7.80;;;;;;;1.94;77.79;100543.38;6120536;29;20224;-74
2021/03/11 08:15:45;;;;;;;12.93;8.50;;;;;;;1.99;77.28;100545.56;6119072;29;20450;-74
2021/03/11 08:18:49;;;;;;;14.87;8.97;;;;;;;1.92;77.87;100523.88;6119792;29;20247;-74
2021/03/11 08:21:52;;;;;;;17.33;10.60;;;;;;;2.00;77.47;100540.03;6120302;29;20193;-74
2021/03/11 08:24:56;;;;;;;14.30;9.53;;;;;;;1.92;78.00;100528.41;6119796;29;20199;-75
2021/03/11 08:28:01;;;;;;;20.10;10.47;;;;;;;2.03;77.45;100515.44;6120149;29;20194;-75
2021/03/11 08:31:06;;;;;;;17.13;10.20;;;;;;;2.03;77.27;100528.09;6119704;29;20227;-74
2021/03/11 08:34:30;;;;;;;17.00;10.13;;;;;;;2.06;77.30;100509.72;6118995;29;20418;-74
2021/03/11 08:37:33;;;;;;;22.37;11.43;;;;;;;2.09;77.29;100498.63;6101982;29;20238;-74
2021/03/11 08:40:39;;;;;;;18.77;10.87;;;;;;;2.28;76.70;100487.50;6118518;29;20415;-74
2021/03/11 08:43:50;;;;;;;23.37;11.30;;;;;;;2.32;76.42;100478.06;6118526;29;20222;-74
2021/03/11 08:46:54;;;;;;;23.10;12.20;;;;;;;2.14;77.13;100463.97;6118386;29;20387;-73
2021/03/11 08:49:58;;;;;;;18.77;11.83;;;;;;;2.24;77.11;100461.91;6119143;29;20196;-73
2021/03/11 08:53:01;;;;;;;25.60;12.27;;;;;;;2.33;76.47;100442.06;6119261;29;20204;-74
2021/03/11 08:56:42;;;;;;;20.47;12.80;;;;;;;2.30;77.15;100439.72;6119534;29;20189;-73
2021/03/11 08:59:47;;;;;;;24.67;12.67;;;;;;;2.35;77.09;100439.19;6118901;29;20221;-73
2021/03/11 09:02:51;;;;;;;27.43;13.40;;;;;;;2.49;75.94;100441.97;6115491;29;20450;-73
2021/03/11 09:05:55;;;;;;;29.00;13.80;;;;;;;2.46;76.39;100425.34;6113756;29;20243;-73
2021/03/11 09:08:58;;;;;;;23.83;14.30;;;;;;;2.42;77.22;100435.63;6118885;29;20251;-73
2021/03/11 09:12:05;;;;;;;28.07;14.53;;;;;;;2.35;76.84;100420.34;6117908;29;20359;-73
2021/03/11 09:15:10;;;;;;;24.33;14.23;;;;;;;2.40;76.97;100394.56;6118675;29;20192;-73
2021/03/11 09:18:19;;;;;;;29.43;14.93;;;;;;;2.38;76.68;100385.00;6117406;29;20476;-73
2021/03/11 09:21:30;;;;;;;39.57;15.20;;;;;;;2.45;76.87;100392.19;6118949;29;20196;-74
2021/03/11 09:24:34;;;;;;;29.23;16.40;;;;;;;2.44;76.95;100390.50;6117438;29;20547;-74
2021/03/11 09:27:39;;;;;;;35.03;16.97;;;;;;;2.53;76.21;100383.22;6118746;29;20192;-73
2021/03/11 09:31:01;;;;;;;35.80;17.50;;;;;;;2.66;75.74;100371.88;6118427;29;20265;-73
2021/03/11 09:34:05;;;;;;;33.43;17.30;;;;;;;2.69;74.77;100366.16;6118285;29;20263;-73
2021/03/11 09:37:09;;;;;;;37.47;17.40;;;;;;;2.46;75.43;100366.97;6117329;29;20411;-73
2021/03/11 09:40:17;;;;;;;34.03;18.47;;;;;;;2.51;74.79;100348.41;6118234;29;20196;-73
2021/03/11 09:43:26;;;;;;;38.83;18.40;;;;;;;2.74;74.04;100342.22;6117508;29;20190;-73
2021/03/11 09:46:30;;;;;;;38.67;20.13;;;;;;;2.59;73.55;100325.13;6117044;29;20197;-73
2021/03/11 09:49:33;;;;;;;34.27;18.93;;;;;;;2.56;72.84;100322.78;6116994;29;20454;-73
2021/03/11 09:52:55;;;;;;;38.77;18.30;;;;;;;2.48;72.06;100332.59;6118440;29;20225;-73
2021/03/11 09:55:59;;;;;;;33.87;17.67;;;;;;;2.45;71.56;100305.19;6118405;29;20191;-73
2021/03/11 09:59:04;;;;;;;36.63;18.03;;;;;;;2.52;71.61;100307.00;6116480;29;20475;-74
2021/03/11 10:02:11;;;;;;;32.50;17.17;;;;;;;2.76;68.59;100297.06;6118178;29;20191;-73
2021/03/11 10:05:16;;;;;;;33.80;17.20;;;;;;;2.75;67.56;100293.53;6109563;29;20238;-73
2021/03/11 10:08:27;;;;;;;31.60;15.57;;;;;;;2.64;68.10;100272.41;6117882;29;20237;-73
2021/03/11 10:11:42;;;;;;;30.07;16.50;;;;;;;2.59;67.38;100252.44;6118244;29;20196;-73
2021/03/11 10:14:45;;;;;;;29.33;16.17;;;;;;;2.56;68.12;100250.09;6116829;29;20505;-73
2021/03/11 10:18:08;;;;;;;32.63;15.93;;;;;;;2.72;66.89;100252.66;6117735;29;20216;-74
2021/03/11 10:21:12;;;;;;;25.63;14.90;;;;;;;2.82;65.98;100243.31;6117785;29;20190;-73
2021/03/11 10:24:30;;;;;;;29.63;16.30;;;;;;;2.85;65.30;100221.38;6117658;29;20222;-73
2021/03/11 10:27:34;;;;;;;27.73;15.77;;;;;;;2.88;65.59;100217.47;6118224;29;20196;-74
2021/03/11 10:30:40;;;;;;;35.63;15.90;;;;;;;2.84;65.61;100189.25;6117657;29;20189;-74
2021/03/11 10:33:44;;;;;;;32.17;17.17;;;;;;;2.97;65.73;100192.16;6117516;29;20190;-73
2021/03/11 10:36:55;;;;;;;36.47;18.63;;;;;;;2.91;65.64;100176.72;6116503;29;20231;-72
2021/03/11 10:40:00;;;;;;;29.70;18.47;;;;;;;2.92;65.47;100183.78;6099835;29;20553;-73
2021/03/11 10:43:16;;;;;;;36.43;17.87;;;;;;;3.05;64.60;100159.72;6116364;29;20391;-73
2021/03/11 10:46:29;;;;;;;41.50;19.07;;;;;;;3.10;65.33;100143.84;6116675;29;20190;-74
2021/03/11 10:49:38;;;;;;;38.10;18.20;;;;;;;3.11;65.28;100150.88;6116516;29;20501;-74
2021/03/11 10:52:47;;;;;;;40.30;19.17;;;;;;;2.99;66.14;100142.44;6117450;29;20191;-74
2021/03/11 10:55:53;;;;;;;41.03;20.00;;;;;;;3.08;65.05;100135.13;6116373;29;20477;-74
2021/03/11 10:59:05;;;;;;;40.17;20.97;;;;;;;3.10;65.36;100122.28;6117528;29;20251;-73
2021/03/11 11:02:09;;;;;;;41.27;21.40;;;;;;;3.11;65.41;100123.94;6117405;29;20366;-74
2021/03/11 11:05:16;;;;;;;39.40;19.97;;;;;;;3.13;66.00;100119.22;6095518;29;20275;-74
2021/03/11 11:08:22;;;;;;;41.03;22.60;;;;;;;3.12;65.87;100107.59;6094037;29;20193;-74
2021/03/11 11:11:25;;;;;;;44.90;23.17;;;;;;;3.13;65.67;100089.56;6097271;29;20377;-74
2021/03/11 11:14:28;;;;;;;45.70;22.33;;;;;;;3.23;65.10;100090.13;6098444;29;20194;-74
2021/03/11 11:17:32;;;;;;;44.70;22.30;;;;;;;3.13;66.43;100078.78;6097678;29;20231;-73
2021/03/11 11:20:38;;;;;;;46.93;21.83;;;;;;;3.09;66.07;100056.75;6097232;29;20254;-74
2021/03/11 11:23:41;;;;;;;43.27;23.10;;;;;;;3.29;65.19;100061.56;6097749;29;20193;-73
2021/03/11 11:26:44;;;;;;;47.47;24.57;;;;;;;3.30;65.71;100074.00;6098021;29;20196;-73
2021/03/11 11:29:47;;;;;;;49.40;23.17;;;;;;;3.34;64.58;100043.78;6098157;29;20196;-73
2021/03/11 11:32:51;;;;;;;42.57;22.03;;;;;;;3.24;64.46;100027.06;6096842;29;20194;-73
2021/03/11 11:35:55;;;;;;;45.03;21.53;;;;;;;3.17;64.75;100021.63;6096702;29;20197;-74
2021/03/11 11:38:58;;;;;;;47.17;21.70;;;;;;;3.11;65.14;99994.56;6096250;29;20553;-74
2021/03/11 11:42:02;;;;;;;42.80;21.93;;;;;;;3.35;63.89;99996.09;6096589;29;20531;-73
2021/03/11 11:45:12;;;;;;;44.53;20.90;;;;;;;3.33;64.05;99963.09;6096166;29;20517;-73
2021/03/11 11:48:19;;;;;;;43.90;22.73;;;;;;;3.42;64.11;99968.16;6097308;29;20194;-73
2021/03/11 11:51:28;;;;;;;49.73;22.50;;;;;;;3.24;65.38;99946.22;6097511;29;20232;-73
2021/03/11 11:54:32;;;;;;;46.37;21.57;;;;;;;3.46;64.47;99938.97;6095925;29;20472;-73
2021/03/11 11:57:37;;;;;;;46.53;22.40;;;;;;;3.49;64.16;99939.41;6089351;29;20191;-73
2021/03/11 12:00:40;;;;;;;44.47;20.87;;;;;;;3.48;63.67;99916.19;6095524;29;20392;-73
2021/03/11 12:04:02;;;;;;;45.93;22.27;;;;;;;3.31;64.58;99920.19;6096821;29;20247;-73
2021/03/11 12:07:10;;;;;;;42.03;20.80;;;;;;;3.41;64.87;99899.13;6137702;29;20188;-73
2021/03/11 12:10:14;;;;;;;40.90;21.40;;;;;;;3.33;65.92;99899.25;6144145;29;20202;-73
2021/03/11 12:13:22;;;;;;;47.33;22.07;;;;;;;3.44;64.69;99879.81;6142917;29;20471;-74
2021/03/11 12:16:26;;;;;;;45.87;20.83;;;;;;;3.31;65.99;99877.03;6142877;29;20540;-74
2021/03/11 12:19:30;;;;;;;46.27;22.03;;;;;;;3.41;66.17;99855.97;6143513;29;20219;-73
2021/03/11 12:22:34;;;;;;;45.47;21.73;;;;;;;3.35;66.47;99837.88;6142395;29;20198;-73
2021/03/11 12:25:38;;;;;;;38.07;20.70;;;;;;;3.29;66.25;99844.03;6143646;29;20190;-75
2021/03/11 12:28:41;;;;;;;45.33;21.10;;;;;;;3.20;67.54;99825.50;6142713;29;20477;-74
2021/03/11 12:31:45;;;;;;;41.90;20.87;;;;;;;3.15;68.68;99799.13;6143474;29;20268;-74
2021/03/11 12:34:48;;;;;;;44.80;20.53;;;;;;;3.34;67.78;99790.34;6143459;29;20194;-74
2021/03/11 12:37:53;;;;;;;43.90;21.00;;;;;;;3.39;67.67;99785.22;6143555;29;20192;-75
2021/03/11 12:40:57;;;;;;;38.63;19.70;;;;;;;3.26;68.61;99782.44;6143569;29;20239;-75
2021/03/11 12:44:00;;;;;;;41.57;19.93;;;;;;;3.18;69.19;99777.19;6143214;29;20226;-75
2021/03/11 12:47:06;;;;;;;44.30;20.33;;;;;;;3.35;69.17;99765.06;6126716;29;20207;-75
2021/03/11 12:50:13;;;;;;;42.70;21.13;;;;;;;3.32;69.34;99741.19;6142975;29;20202;-76
2021/03/11 12:53:19;;;;;;;39.20;19.93;;;;;;;3.24;69.89;99725.16;6143371;29;20195;-74
2021/03/11 12:56:24;;;;;;;48.60;21.80;;;;;;;3.14;70.60;99719.31;6142327;29;20473;-74
2021/03/11 12:59:28;;;;;;;48.90;21.30;;;;;;;2.99;73.63;99715.88;6141660;29;20243;-73
2021/03/11 13:02:33;;;;;;;50.17;21.37;;;;;;;2.95;74.15;99693.06;6142674;29;20238;-74
2021/03/11 13:05:36;;;;;;;44.23;21.30;;;;;;;2.80;75.19;99695.00;6142418;29;20525;-73
2021/03/11 13:08:42;;;;;;;51.57;21.33;;;;;;;2.82;75.55;99692.94;6142494;29;20193;-73
2021/03/11 13:11:45;;;;;;;41.90;21.30;;;;;;;2.80;76.14;99678.84;6142640;29;20194;-73
2021/03/11 13:14:49;;;;;;;40.10;18.33;;;;;;;2.60;78.27;99680.50;6142361;29;20197;-73
2021/03/11 13:17:53;;;;;;;47.47;22.47;;;;;;;2.67;79.20;99658.00;6141330;29;20377;-73
2021/03/11 13:20:56;;;;;;;43.87;18.83;;;;;;;2.48;79.94;99658.69;6142125;29;20216;-74
2021/03/11 13:24:01;;;;;;;53.37;24.83;;;;;;;2.45;81.67;99632.97;6142614;29;20192;-73
2021/03/11 13:27:05;;;;;;;66.70;25.30;;;;;;;2.29;84.27;99622.47;6141368;29;20361;-73
2021/03/11 13:30:10;;;;;;;54.23;23.03;;;;;;;2.23;84.32;99604.44;6141113;29;20365;-74
2021/03/11 13:33:24;;;;;;;55.20;24.83;;;;;;;2.28;84.21;99591.22;6140390;29;20396;-74
2021/03/11 13:36:29;;;;;;;55.97;24.73;;;;;;;2.33;83.42;99591.47;6141045;29;20477;-72
2021/03/11 13:39:33;;;;;;;54.40;24.30;;;;;;;2.07;85.00;99585.00;6141895;29;20215;-72
2021/03/11 13:42:37;;;;;;;53.80;25.50;;;;;;;1.93;86.93;99581.34;6142328;29;20198;-73
2021/03/11 13:45:41;;;;;;;62.63;26.87;;;;;;;1.93;87.29;99573.28;6141227;29;20268;-73
2021/03/11 13:48:45;;;;;;;68.50;28.03;;;;;;;1.84;88.27;99563.69;6142030;29;20266;-73
2021/03/11 13:51:48;;;;;;;59.93;28.67;;;;;;;1.81;87.90;99572.13;6141978;29;20234;-73
2021/03/11 13:54:53;;;;;;;67.50;28.73;;;;;;;1.78;90.26;99561.75;6141700;29;20197;-73
2021/03/11 13:57:57;;;;;;;64.57;26.87;;;;;;;1.74;89.47;99541.66;6141796;29;20192;-73
2021/03/11 14:01:00;;;;;;;58.27;25.93;;;;;;;1.87;88.08;99541.81;6141487;29;20235;-73
2021/03/11 14:04:17;;;;;;;59.07;25.60;;;;;;;1.67;89.35;99530.03;6141512;29;20236;-74
2021/03/11 14:07:38;;;;;;;55.20;25.83;;;;;;;1.76;89.41;99523.47;6141866;29;20188;-74
2021/03/11 14:10:43;;;;;;;61.30;28.00;;;;;;;1.65;90.23;99502.47;6141425;29;20224;-74
2021/03/11 14:13:46;;;;;;;68.80;27.47;;;;;;;1.60;91.70;99503.06;6141292;29;20191;-74
2021/03/11 14:16:49;;;;;;;66.83;27.40;;;;;;;1.64;91.98;99495.44;6141664;29;20198;-74
2021/03/11 14:19:53;;;;;;;65.07;27.13;;;;;;;1.60;92.87;99496.84;6140232;29;20443;-74
2021/03/11 14:22:56;;;;;;;63.90;28.47;;;;;;;1.36;95.04;99499.91;6140426;29;20498;-73
2021/03/11 14:26:01;;;;;;;53.73;24.10;;;;;;;1.33;95.77;99478.78;6141013;29;20191;-75